Time;durP1;ratioP1;P1;durP2;ratioP2;P2;SDS_P1;SDS_P2;PMS_P1;PMS_P2;Temp;Humidity;BMP_temperature;BMP_pressure;BME280_temperature;BME280_humidity;BME280_pressure;Samples;Min_cycle;Max_cycle;Signal;HPM_P1;HPM_P2
2023/01/03 06:10:59;;;;;;;;;;;;;;;;;;6312002;22;20058;-57
2023/01/03 06:13:25;;;;;;;42.63;16.48;;;;;;;;;;6227210;22;1247280;-57
2023/01/03 06:17:53;;;;;;;45.00;17.35;;;;;;;;;;6252972;23;20061;-56
2023/01/03 06:18:36;;;;;;;45.63;17.60;;;;;;;;;;6236110;23;20000;-57
2023/01/03 06:21:03;;;;;;;50.22;18.75;;;;;;;;;;6220380;22;20111;-62
2023/01/03 06:23:29;;;;;;;38.90;16.38;;;;;;;;;;6222620;23;20363;-62
2023/01/03 06:25:55;;;;;;;38.63;15.60;;;;;;;;;;6222628;23;20000;-62
2023/01/03 06:28:21;;;;;;;32.10;14.90;;;;;;;;;;6222279;23;20008;-61
2023/01/03 06:30:47;;;;;;;33.83;14.40;;;;;;;;;;6222407;23;20000;-61
2023/01/03 06:33:13;;;;;;;50.83;14.43;;;;;;;;;;6222547;23;20004;-62
2023/01/03 06:35:39;;;;;;;29.52;12.88;;;;;;;;;;6222511;23;20447;-62
2023/01/03 06:38:05;;;;;;;9.52;5.45;;;;;;;;;;6221972;23;20007;-62
2023/01/03 06:40:31;;;;;;;3.40;2.58;;;;;;;;;;6222372;23;20028;-62
2023/01/03 06:42:58;;;;;;;9.95;3.25;;;;;;;;;;6222707;23;19997;-61
2023/01/03 06:53:39;;;;;;;10.30;3.05;;;;;;;;;;6222457;23;20047;-61
2023/01/03 06:56:05;;;;;;;9.52;2.70;;;;;;;;;;6222325;23;20008;-62
2023/01/03 06:58:31;;;;;;;9.13;2.67;;;;;;;;;;6222018;23;20417;-62
2023/01/03 07:00:58;;;;;;;7.80;2.13;;;;;;;;;;6222136;23;20440;-63
2023/01/03 07:03:24;;;;;;;15.77;3.25;;;;;;;;;;6222233;23;19996;-62
2023/01/03 07:05:50;;;;;;;7.00;2.58;;;;;;;;;;6222273;23;20016;-61
2023/01/03 07:08:16;;;;;;;16.70;2.75;;;;;;;;;;6216279;23;20004;-61
2023/01/03 07:10:42;;;;;;;11.23;2.83;;;;;;;;;;6215414;23;20004;-62
2023/01/03 07:15:53;;;;;;;11.27;3.30;;;;;;;;;;6215290;23;20448;-61
2023/01/03 07:18:19;;;;;;;12.13;3.00;;;;;;;;;;6215047;23;20020;-63
2023/01/03 07:20:45;;;;;;;26.88;3.75;;;;;;;;;;6215087;23;20026;-62
2023/01/03 07:23:11;;;;;;;20.48;3.97;;;;;;;;;;6215785;23;19997;-60
2023/01/03 07:25:40;;;;;;;17.57;3.50;;;;;;;;;;6215782;23;20011;-61
2023/01/03 07:28:06;;;;;;;14.45;2.78;;;;;;;;;;6215052;23;20566;-62
2023/01/03 07:30:35;;;;;;;18.60;3.22;;;;;;;;;;6215153;23;20306;-61
2023/01/03 07:33:01;;;;;;;24.73;3.22;;;;;;;;;;6215323;23;20011;-61
2023/01/03 07:35:27;;;;;;;23.55;3.15;;;;;;;;;;6215023;23;20012;-59
2023/01/03 07:37:53;;;;;;;24.70;3.25;;;;;;;;;;6214938;23;20004;-60
2023/01/03 07:40:19;;;;;;;14.95;3.72;;;;;;;;;;6215154;23;20411;-63
2023/01/03 07:45:30;;;;;;;15.93;2.42;;;;;;;;;;6215245;23;20019;-60
2023/01/03 07:47:56;;;;;;;12.15;3.08;;;;;;;;;;6215168;23;20005;-62
2023/01/03 07:50:22;;;;;;;19.15;3.25;;;;;;;;;;6214746;23;20000;-62
2023/01/03 07:52:48;;;;;;;16.65;2.90;;;;;;;;;;6215102;23;20000;-62
2023/01/03 07:55:14;;;;;;;12.82;3.05;;;;;;;;;;6214911;23;20036;-62
2023/01/03 07:57:40;;;;;;;16.25;2.75;;;;;;;;;;6214687;23;20027;-60
2023/01/03 08:00:06;;;;;;;16.58;3.70;;;;;;;;;;6214922;23;20484;-62
2023/01/03 08:02:32;;;;;;;13.60;3.70;;;;;;;;;;6215234;23;20310;-63
2023/01/03 08:04:58;;;;;;;25.88;4.75;;;;;;;;;;6215167;23;20091;-61
2023/01/03 08:07:24;;;;;;;19.63;4.10;;;;;;;;;;6215097;23;20452;-63
2023/01/03 08:15:19;;;;;;;22.13;3.85;;;;;;;;;;6214845;23;20016;-60
2023/01/03 08:17:45;;;;;;;27.45;3.47;;;;;;;;;;6212842;23;20001;-62
2023/01/03 08:20:11;;;;;;;21.02;4.47;;;;;;;;;;6213993;23;20352;-63
2023/01/03 08:22:37;;;;;;;22.63;4.10;;;;;;;;;;6214814;23;20005;-63
2023/01/03 08:25:03;;;;;;;22.73;4.10;;;;;;;;;;6214461;23;20075;-64
2023/01/03 08:27:29;;;;;;;15.82;3.92;;;;;;;;;;6214365;23;20004;-62
2023/01/03 08:29:55;;;;;;;23.17;4.25;;;;;;;;;;6214632;23;19997;-62
2023/01/03 08:32:21;;;;;;;19.08;4.18;;;;;;;;;;6214519;23;20047;-62
2023/01/03 08:34:47;;;;;;;18.27;4.00;;;;;;;;;;6212784;23;20011;-63
2023/01/03 08:37:15;;;;;;;24.05;3.65;;;;;;;;;;6214120;23;20007;-61
2023/01/03 08:39:43;;;;;;;15.02;3.95;;;;;;;;;;6214408;23;20447;-61
2023/01/03 08:42:10;;;;;;;25.55;3.58;;;;;;;;;;6214462;23;20072;-62
2023/01/03 08:44:37;;;;;;;22.15;5.05;;;;;;;;;;6214613;23;20004;-61
2023/01/03 08:47:03;;;;;;;17.58;4.38;;;;;;;;;;6214575;23;20314;-62
2023/01/03 08:49:29;;;;;;;17.55;3.95;;;;;;;;;;6214241;23;20004;-63
2023/01/03 08:51:55;;;;;;;20.00;3.70;;;;;;;;;;6214772;23;20011;-61
2023/01/03 08:54:21;;;;;;;15.05;3.92;;;;;;;;;;6214391;23;20004;-62
2023/01/03 08:56:47;;;;;;;21.50;4.10;;;;;;;;;;6214414;23;20009;-62
2023/01/03 08:59:13;;;;;;;24.30;4.88;;;;;;;;;;6214451;23;20003;-61
2023/01/03 09:01:40;;;;;;;26.23;4.40;;;;;;;;;;6214356;23;20382;-62
2023/01/03 09:04:06;;;;;;;22.80;4.57;;;;;;;;;;6214621;23;20337;-60
2023/01/03 09:06:33;;;;;;;18.90;4.10;;;;;;;;;;6214432;23;20004;-61
2023/01/03 09:08:58;;;;;;;13.88;4.00;;;;;;;;;;6212414;23;20009;-60
2023/01/03 09:11:24;;;;;;;31.33;4.85;;;;;;;;;;6214310;23;20429;-62
2023/01/03 09:13:50;;;;;;;23.25;4.13;;;;;;;;;;6214313;23;20054;-60
2023/01/03 09:16:16;;;;;;;24.73;3.92;;;;;;;;;;6214353;23;20001;-60
2023/01/03 09:18:43;;;;;;;22.95;5.15;;;;;;;;;;6213939;23;20019;-60
2023/01/03 09:21:09;;;;;;;24.83;4.00;;;;;;;;;;6214079;23;20429;-62
2023/01/03 09:23:35;;;;;;;39.05;4.22;;;;;;;;;;6214264;23;20078;-60
2023/01/03 09:26:02;;;;;;;24.45;4.15;;;;;;;;;;6214306;23;20008;-64
2023/01/03 09:28:28;;;;;;;34.15;5.70;;;;;;;;;;6212241;23;20484;-61
2023/01/03 09:30:54;;;;;;;28.83;5.05;;;;;;;;;;6213430;23;20000;-60
2023/01/03 09:33:20;;;;;;;24.58;4.28;;;;;;;;;;6213870;23;20028;-62
2023/01/03 09:35:46;;;;;;;24.52;4.50;;;;;;;;;;6214121;23;20000;-61
2023/01/03 09:38:12;;;;;;;24.67;4.28;;;;;;;;;;6213925;23;20074;-60
2023/01/03 09:40:46;;;;;;;18.10;5.13;;;;;;;;;;6214012;23;20007;-62
2023/01/03 09:43:15;;;;;;;27.67;3.80;;;;;;;;;;6214479;23;19996;-60
2023/01/03 09:45:48;;;;;;;25.15;4.72;;;;;;;;;;6214051;23;20001;-60
2023/01/03 09:48:16;;;;;;;31.40;5.00;;;;;;;;;;6213810;23;20410;-63
2023/01/03 09:50:42;;;;;;;;;;;;;;;;;;6214754;23;20027;-64
2023/01/03 10:04:59;;;;;;;23.33;4.32;;;;;;;;;;6214127;23;20451;-63
2023/01/03 10:07:37;;;;;;;26.15;5.38;;;;;;;;;;6213752;23;20023;-62
2023/01/03 10:10:15;;;;;;;24.17;4.80;;;;;;;;;;6213807;23;20050;-62
2023/01/03 10:12:44;;;;;;;22.17;4.65;;;;;;;;;;6213926;23;20424;-63
2023/01/03 10:15:10;;;;;;;26.10;4.57;;;;;;;;;;6213872;23;20091;-63
2023/01/03 10:17:50;;;;;;;31.25;5.10;;;;;;;;;;6213998;23;20420;-63
2023/01/03 10:20:36;;;;;;;32.40;5.50;;;;;;;;;;6213637;23;20004;-63
2023/01/03 10:23:04;;;;;;;26.45;4.97;;;;;;;;;;6213522;23;20448;-63
2023/01/03 10:25:30;;;;;;;29.50;4.75;;;;;;;;;;6213824;23;20008;-64
2023/01/03 10:28:01;;;;;;;28.60;5.22;;;;;;;;;;6213502;23;20007;-63
2023/01/03 10:30:39;;;;;;;20.90;5.43;;;;;;;;;;6213696;23;20326;-65
2023/01/03 10:33:32;;;;;;;23.20;5.47;;;;;;;;;;6213831;23;20028;-63
2023/01/03 10:35:58;;;;;;;32.35;7.03;;;;;;;;;;6209608;23;20004;-63
2023/01/03 10:38:25;;;;;;;27.45;5.85;;;;;;;;;;6213505;23;20004;-63
2023/01/03 10:41:00;;;;;;;30.52;5.55;;;;;;;;;;6213601;23;20437;-62
2023/01/03 10:43:40;;;;;;;24.55;5.95;;;;;;;;;;6215109;23;20000;-64
2023/01/03 10:46:13;;;;;;;25.75;5.55;;;;;;;;;;6215631;23;20008;-61
2023/01/03 10:48:40;;;;;;;24.42;5.80;;;;;;;;;;6215390;23;20007;-61
2023/01/03 10:51:22;;;;;;;26.25;5.18;;;;;;;;;;6215541;23;20452;-63
2023/01/03 10:53:49;;;;;;;43.05;17.52;;;;;;;;;;6216478;23;20007;-61
2023/01/03 10:56:16;;;;;;;59.95;22.77;;;;;;;;;;6215918;23;20008;-60
2023/01/03 10:58:42;;;;;;;60.83;24.83;;;;;;;;;;6215229;23;20043;-61
2023/01/03 11:01:19;;;;;;;53.17;16.65;;;;;;;;;;6215605;23;20445;-63
2023/01/03 11:03:56;;;;;;;54.75;24.00;;;;;;;;;;6215499;23;20068;-62
2023/01/03 11:06:22;;;;;;;57.83;21.63;;;;;;;;;;6215491;23;20004;-63
2023/01/03 11:08:54;;;;;;;47.10;16.38;;;;;;;;;;6214994;23;20010;-63
2023/01/03 11:11:26;;;;;;;46.35;16.00;;;;;;;;;;6213797;23;20014;-62
2023/01/03 11:14:04;;;;;;;49.90;16.90;;;;;;;;;;6215614;23;20001;-62
2023/01/03 11:16:31;;;;;;;52.13;15.85;;;;;;;;;;6213708;23;20013;-63
2023/01/03 11:19:01;;;;;;;55.03;15.48;;;;;;;;;;6215015;23;20007;-64
2023/01/03 11:21:27;;;;;;;45.33;14.85;;;;;;;;;;6214994;23;20009;-62
2023/01/03 11:24:17;;;;;;;39.30;14.00;;;;;;;;;;6213916;23;20249;-63
2023/01/03 11:26:46;;;;;;;46.08;15.27;;;;;;;;;;6206982;23;20012;-63
2023/01/03 11:29:15;;;;;;;40.50;14.43;;;;;;;;;;6214745;23;20076;-63
2023/01/03 11:32:04;;;;;;;43.78;13.80;;;;;;;;;;6214964;23;20005;-63
2023/01/03 11:34:36;;;;;;;39.85;13.93;;;;;;;;;;6206984;23;20024;-63
2023/01/03 11:37:17;;;;;;;56.90;13.30;;;;;;;;;;6215336;23;20008;-63
2023/01/03 11:40:02;;;;;;;43.28;14.45;;;;;;;;;;6213698;23;20381;-63
2023/01/03 11:42:47;;;;;;;45.70;13.93;;;;;;;;;;6215185;23;20003;-63
2023/01/03 11:45:31;;;;;;;55.22;15.65;;;;;;;;;;6215010;23;20008;-62
2023/01/03 11:48:06;;;;;;;27.80;10.23;;;;;;;;;;6215007;23;20092;-63
2023/01/03 11:50:50;;;;;;;17.83;6.88;;;;;;;;;;6214870;23;19996;-63
2023/01/03 11:53:19;;;;;;;27.70;7.75;;;;;;;;;;6214881;23;20212;-62
2023/01/03 11:55:59;;;;;;;20.27;6.85;;;;;;;;;;6215513;23;20007;-61
2023/01/03 11:58:42;;;;;;;16.83;6.15;;;;;;;;;;6214913;23;20004;-63
2023/01/03 12:01:14;;;;;;;28.10;7.03;;;;;;;;;;6214997;23;20263;-63
2023/01/03 12:03:59;;;;;;;24.55;6.30;;;;;;;;;;6215095;23;20008;-61
2023/01/03 12:06:25;;;;;;;22.27;6.75;;;;;;;;;;6214867;23;20028;-61
2023/01/03 12:09:02;;;;;;;27.38;6.05;;;;;;;;;;6214746;23;20061;-61
2023/01/03 12:11:57;;;;;;;18.33;5.78;;;;;;;;;;6213131;23;20063;-61
2023/01/03 12:14:30;;;;;;;26.02;6.22;;;;;;;;;;6214947;23;20015;-61
2023/01/03 12:17:01;;;;;;;22.20;6.97;;;;;;;;;;6213066;23;20135;-60
2023/01/03 12:19:36;;;;;;;25.95;6.63;;;;;;;;;;6214438;23;20004;-62
2023/01/03 12:22:02;;;;;;;30.05;7.28;;;;;;;;;;6214946;22;20009;-59
2023/01/03 12:24:46;;;;;;;22.88;7.68;;;;;;;;;;6214592;23;20083;-60
2023/01/03 12:27:32;;;;;;;17.13;6.00;;;;;;;;;;6214596;23;20001;-60
2023/01/03 12:29:58;;;;;;;22.80;6.50;;;;;;;;;;6187908;23;20428;-60
2023/01/03 12:32:33;;;;;;;23.48;6.15;;;;;;;;;;6190697;23;20270;-60
2023/01/03 12:35:11;;;;;;;12.45;6.25;;;;;;;;;;6184447;23;20448;-60
2023/01/03 12:37:38;;;;;;;21.48;7.53;;;;;;;;;;6184249;23;20003;-60
2023/01/03 12:40:16;;;;;;;25.70;7.00;;;;;;;;;;6184499;23;19997;-63
2023/01/03 12:42:45;;;;;;;24.42;6.85;;;;;;;;;;6184359;23;20048;-59
2023/01/03 12:45:30;;;;;;;16.67;5.18;;;;;;;;;;6184137;23;19997;-58
2023/01/03 12:48:09;;;;;;;15.93;5.60;;;;;;;;;;6184179;23;20001;-59
2023/01/03 12:50:40;;;;;;;13.10;5.28;;;;;;;;;;6184528;23;20021;-59
2023/01/03 12:53:11;;;;;;;13.20;6.10;;;;;;;;;;6184433;23;19997;-58
2023/01/03 12:55:56;;;;;;;12.75;5.82;;;;;;;;;;6184370;23;20005;-59
2023/01/03 12:58:30;;;;;;;16.13;5.60;;;;;;;;;;6183825;23;20001;-60
2023/01/03 13:01:05;;;;;;;19.58;5.57;;;;;;;;;;6184294;23;19997;-60
2023/01/03 13:03:35;;;;;;;13.50;5.70;;;;;;;;;;6184601;23;20083;-59
2023/01/03 13:06:10;;;;;;;15.43;5.97;;;;;;;;;;6157429;23;20365;-57
2023/01/03 13:08:40;;;;;;;17.27;6.35;;;;;;;;;;6183817;23;20024;-59
2023/01/03 13:11:12;;;;;;;10.75;5.60;;;;;;;;;;6157797;23;20005;-58
2023/01/03 13:13:47;;;;;;;9.40;5.05;;;;;;;;;;6183852;23;20012;-60
2023/01/03 13:16:49;;;;;;;13.57;5.93;;;;;;;;;;6184310;23;20001;-58
2023/01/03 13:19:21;;;;;;;15.85;5.50;;;;;;;;;;6063780;23;20007;-58
2023/01/03 13:21:53;;;;;;;19.05;5.72;;;;;;;;;;6063814;23;20018;-60
2023/01/03 13:24:37;;;;;;;16.70;6.13;;;;;;;;;;6064146;23;20074;-60
2023/01/03 13:29:56;;;;;;;12.80;5.25;;;;;;;;;;6063878;23;20030;-60
2023/01/03 13:32:22;;;;;;;9.27;5.00;;;;;;;;;;6063832;23;20007;-58
2023/01/03 13:34:54;;;;;;;15.73;5.97;;;;;;;;;;6064150;23;20643;-60
2023/01/03 13:37:21;;;;;;;14.13;5.32;;;;;;;;;;6063748;23;20512;-60
2023/01/03 13:39:57;;;;;;;11.60;5.15;;;;;;;;;;6063720;23;20078;-59
2023/01/03 13:42:26;;;;;;;13.98;5.13;;;;;;;;;;6063819;23;20034;-60
2023/01/03 13:44:54;;;;;;;10.25;5.15;;;;;;;;;;6063922;23;20364;-60
2023/01/03 13:47:33;;;;;;;10.23;4.82;;;;;;;;;;6063629;23;20479;-58
2023/01/03 13:49:59;;;;;;;9.63;5.40;;;;;;;;;;6063698;23;20371;-58
2023/01/03 13:52:36;;;;;;;9.50;4.72;;;;;;;;;;6084413;23;20377;-58
2023/01/03 13:55:03;;;;;;;9.85;4.90;;;;;;;;;;6183707;23;20001;-58
2023/01/03 13:57:37;;;;;;;10.05;5.07;;;;;;;;;;6183845;23;20001;-58
2023/01/03 14:00:17;;;;;;;8.23;5.05;;;;;;;;;;6183752;23;20117;-59
2023/01/03 14:02:58;;;;;;;10.25;4.68;;;;;;;;;;6183659;23;20008;-60
2023/01/03 14:05:47;;;;;;;9.32;5.05;;;;;;;;;;6183806;23;20005;-59
2023/01/03 14:08:19;;;;;;;11.93;6.00;;;;;;;;;;6168083;23;20032;-59
2023/01/03 14:11:04;;;;;;;9.70;5.15;;;;;;;;;;6156349;23;20052;-59
2023/01/03 14:13:36;;;;;;;13.07;5.43;;;;;;;;;;6183204;23;20031;-59
2023/01/03 14:16:20;;;;;;;15.00;5.25;;;;;;;;;;6183683;23;20009;-59
2023/01/03 14:18:53;;;;;;;14.02;5.38;;;;;;;;;;6185084;23;20004;-58
2023/01/03 14:21:39;;;;;;;10.48;4.55;;;;;;;;;;6159191;23;20088;-59
2023/01/03 14:24:06;;;;;;;18.90;5.88;;;;;;;;;;6165285;23;20024;-58
2023/01/03 14:26:32;;;;;;;12.73;5.67;;;;;;;;;;6185538;23;20084;-60
2023/01/03 14:28:58;;;;;;;11.25;5.18;;;;;;;;;;6185343;23;20020;-59
2023/01/03 14:31:26;;;;;;;12.48;4.72;;;;;;;;;;6159158;23;20012;-58
2023/01/03 14:33:54;;;;;;;16.40;5.10;;;;;;;;;;6185499;23;20005;-61
2023/01/03 14:36:21;;;;;;;13.93;5.20;;;;;;;;;;6159247;23;20058;-60
2023/01/03 14:38:48;;;;;;;18.75;5.40;;;;;;;;;;6185654;23;20004;-58
2023/01/03 14:41:33;;;;;;;20.85;6.32;;;;;;;;;;6185757;23;19997;-59
2023/01/03 14:44:05;;;;;;;23.42;6.45;;;;;;;;;;6159287;23;20437;-58
2023/01/03 14:46:32;;;;;;;34.42;6.10;;;;;;;;;;6185567;23;19997;-58
2023/01/03 14:49:00;;;;;;;16.77;4.97;;;;;;;;;;6185173;23;20390;-60
2023/01/03 14:51:26;;;;;;;;;;;;;;;;;;6185838;23;20005;-59
2023/01/03 14:53:52;;;;;;;24.40;6.93;;;;;;;;;;6184247;23;20005;-59
2023/01/03 14:56:19;;;;;;;30.75;6.22;;;;;;;;;;6183796;23;20087;-60
2023/01/03 14:58:46;;;;;;;27.50;5.53;;;;;;;;;;6185197;23;19997;-58
2023/01/03 15:01:13;;;;;;;18.40;5.15;;;;;;;;;;6185148;23;20001;-59
2023/01/03 15:03:43;;;;;;;317.17;138.07;;;;;;;;;;6185351;23;20384;-58
2023/01/03 15:06:16;;;;;;;50.28;15.07;;;;;;;;;;6158949;23;20013;-58
2023/01/03 15:08:42;;;;;;;44.28;11.93;;;;;;;;;;6185078;23;20333;-59
2023/01/03 15:11:09;;;;;;;39.00;9.97;;;;;;;;;;6185098;23;20488;-59
2023/01/03 15:13:38;;;;;;;29.70;8.07;;;;;;;;;;6185063;23;20231;-59
2023/01/03 15:16:06;;;;;;;30.58;7.95;;;;;;;;;;6185082;23;20361;-60
2023/01/03 15:18:32;;;;;;;;;;;;;;;;;;6185102;23;19998;-58
2023/01/03 15:20:59;;;;;;;20.80;7.05;;;;;;;;;;6185091;23;19931;-59
2023/01/03 15:23:37;;;;;;;68.47;7.82;;;;;;;;;;6185201;23;20340;-60
2023/01/03 15:26:04;;;;;;;30.40;6.82;;;;;;;;;;6184774;23;20473;-60
2023/01/03 15:28:37;;;;;;;20.50;5.95;;;;;;;;;;6184492;23;20005;-61
2023/01/03 15:31:15;;;;;;;16.85;5.82;;;;;;;;;;6158716;23;20107;-61
2023/01/03 15:33:41;;;;;;;24.75;5.68;;;;;;;;;;6184970;23;20008;-59
2023/01/03 15:36:11;;;;;;;24.05;5.93;;;;;;;;;;6185114;23;20012;-60
2023/01/03 15:38:38;;;;;;;13.23;4.22;;;;;;;;;;6184821;23;20088;-58
2023/01/03 15:41:14;;;;;;;15.40;4.95;;;;;;;;;;6184809;23;20080;-59
2023/01/03 15:43:40;;;;;;;14.82;4.63;;;;;;;;;;6183883;23;20005;-59
2023/01/03 15:46:14;;;;;;;15.13;5.18;;;;;;;;;;6184749;23;20001;-59
2023/01/03 15:48:41;;;;;;;14.88;4.63;;;;;;;;;;6184373;23;20059;-59
2023/01/03 15:51:07;;;;;;;19.95;4.72;;;;;;;;;;6184986;23;20044;-60
2023/01/03 15:53:35;;;;;;;19.88;5.38;;;;;;;;;;6158313;23;20009;-60
2023/01/03 15:56:01;;;;;;;;;;;;;;;;;;6185055;23;20000;-59
2023/01/03 15:58:28;;;;;;;16.98;4.93;;;;;;;;;;6184671;23;19920;-61
2023/01/03 16:00:54;;;;;;;19.75;5.20;;;;;;;;;;6184706;23;20023;-60
2023/01/03 16:03:21;;;;;;;23.38;4.80;;;;;;;;;;6184296;23;20008;-61
2023/01/03 16:05:47;;;;;;;17.48;5.28;;;;;;;;;;6158324;23;20005;-59
2023/01/03 16:08:33;;;;;;;13.10;5.53;;;;;;;;;;6184458;23;20039;-61
2023/01/03 16:11:00;;;;;;;13.25;4.95;;;;;;;;;;6183814;23;20035;-64
2023/01/03 16:13:27;;;;;;;28.23;5.20;;;;;;;;;;6184372;23;20524;-60
2023/01/03 16:15:54;;;;;;;24.55;5.30;;;;;;;;;;6184688;23;20051;-59
2023/01/03 16:18:25;;;;;;;14.70;5.70;;;;;;;;;;6184463;23;20012;-60
2023/01/03 16:20:52;;;;;;;14.73;5.60;;;;;;;;;;6184511;23;19997;-59
2023/01/03 16:23:26;;;;;;;20.65;5.85;;;;;;;;;;6183822;23;20058;-59
2023/01/03 16:25:52;;;;;;;15.13;5.25;;;;;;;;;;6184436;23;20032;-60
2023/01/03 16:28:18;;;;;;;15.85;6.35;;;;;;;;;;6184211;23;19997;-59
2023/01/03 16:30:44;;;;;;;13.77;6.00;;;;;;;;;;6184494;23;20011;-57
2023/01/03 16:33:20;;;;;;;10.85;4.60;;;;;;;;;;6184573;23;20576;-61
2023/01/03 16:35:47;;;;;;;19.23;5.38;;;;;;;;;;6183761;23;20056;-60
2023/01/03 16:38:13;;;;;;;13.60;5.30;;;;;;;;;;6183457;23;20004;-60
2023/01/03 16:40:39;;;;;;;17.17;5.60;;;;;;;;;;6184064;23;20056;-61
2023/01/03 16:43:05;;;;;;;14.65;5.47;;;;;;;;;;6184417;23;20001;-58
2023/01/03 16:45:31;;;;;;;16.55;6.60;;;;;;;;;;6184837;23;20087;-62
2023/01/03 16:48:00;;;;;;;15.38;5.68;;;;;;;;;;6184011;23;20382;-60
2023/01/03 16:50:26;;;;;;;69.55;43.33;;;;;;;;;;6184069;23;20005;-57
2023/01/03 16:52:56;;;;;;;36.35;13.48;;;;;;;;;;6184264;23;20418;-60
2023/01/03 16:55:28;;;;;;;30.58;12.85;;;;;;;;;;6184388;23;20444;-59
2023/01/03 16:57:54;;;;;;;24.45;13.27;;;;;;;;;;6184639;23;20005;-59
2023/01/03 17:00:21;;;;;;;25.73;12.27;;;;;;;;;;6184212;23;19997;-60
2023/01/03 17:02:48;;;;;;;22.38;13.18;;;;;;;;;;6184294;23;19997;-59
2023/01/03 17:05:14;;;;;;;24.17;11.63;;;;;;;;;;6184470;23;19997;-59
2023/01/03 17:07:42;;;;;;;31.42;12.07;;;;;;;;;;6184399;23;19997;-57
2023/01/03 17:10:08;;;;;;;;;;;;;;;;;;6184708;23;20382;-59
2023/01/03 17:12:34;;;;;;;42.70;11.05;;;;;;;;;;6184061;23;19904;-59
2023/01/03 17:15:00;;;;;;;20.05;10.88;;;;;;;;;;6184035;23;20024;-58
2023/01/03 17:17:26;;;;;;;20.35;10.57;;;;;;;;;;6183840;23;20008;-58
2023/01/03 17:19:52;;;;;;;30.85;11.60;;;;;;;;;;6184332;23;19997;-58
2023/01/03 17:22:20;;;;;;;17.95;10.38;;;;;;;;;;6183989;23;20069;-60
2023/01/03 17:24:46;;;;;;;21.20;11.07;;;;;;;;;;6184484;23;19997;-57
2023/01/03 17:27:16;;;;;;;32.95;9.55;;;;;;;;;;6184348;23;20071;-59
2023/01/03 17:29:42;;;;;;;26.83;11.10;;;;;;;;;;6184203;23;20341;-59
2023/01/03 17:32:16;;;;;;;25.92;11.25;;;;;;;;;;6183880;23;20457;-58
2023/01/03 17:34:42;;;;;;;26.55;9.68;;;;;;;;;;6184062;23;20050;-60
2023/01/03 17:37:12;;;;;;;24.42;10.40;;;;;;;;;;6183912;23;20001;-59
2023/01/03 17:39:38;;;;;;;25.83;9.38;;;;;;;;;;6183588;23;20001;-58
2023/01/03 17:42:12;;;;;;;18.67;10.18;;;;;;;;;;6183948;23;20011;-58
2023/01/03 17:44:39;;;;;;;49.22;10.25;;;;;;;;;;6184054;23;19997;-59
2023/01/03 17:49:59;;;;;;;22.58;9.63;;;;;;;;;;6183577;23;20019;-60
2023/01/03 17:52:28;;;;;;;32.15;8.70;;;;;;;;;;6157546;23;20456;-58
2023/01/03 17:54:54;;;;;;;30.80;9.82;;;;;;;;;;6183688;23;20007;-61
2023/01/03 17:57:20;;;;;;;28.92;9.60;;;;;;;;;;6183353;23;20081;-62
2023/01/03 17:59:46;;;;;;;28.95;9.98;;;;;;;;;;6183708;23;20009;-57
2023/01/03 18:02:16;;;;;;;66.93;36.95;;;;;;;;;;6183579;23;20002;-58
2023/01/03 18:04:42;;;;;;;67.72;36.55;;;;;;;;;;6157290;23;20001;-59
2023/01/03 18:07:09;;;;;;;94.07;50.95;;;;;;;;;;6183759;23;20005;-59
2023/01/03 18:09:35;;;;;;;82.68;52.65;;;;;;;;;;6183453;23;20008;-59
2023/01/03 18:12:01;;;;;;;89.32;50.20;;;;;;;;;;6183703;23;20001;-59
2023/01/03 18:14:27;;;;;;;89.25;43.80;;;;;;;;;;6183266;23;20020;-59
2023/01/03 18:16:53;;;;;;;69.65;39.30;;;;;;;;;;6183495;23;20016;-59
2023/01/03 18:19:19;;;;;;;67.80;36.00;;;;;;;;;;6183098;23;20001;-61
2023/01/03 18:21:45;;;;;;;58.33;33.47;;;;;;;;;;6188463;22;20013;-65
2023/01/03 18:24:13;;;;;;;65.90;31.90;;;;;;;;;;6213933;23;19997;-62
2023/01/03 18:26:41;;;;;;;76.75;30.90;;;;;;;;;;6214185;23;20079;-64
2023/01/03 18:29:11;;;;;;;54.53;30.98;;;;;;;;;;6213455;23;20035;-64
2023/01/03 18:31:37;;;;;;;52.10;25.55;;;;;;;;;;6213655;23;20039;-63
2023/01/03 18:34:03;;;;;;;54.90;27.17;;;;;;;;;;6213730;23;20008;-65
2023/01/03 18:36:30;;;;;;;47.28;23.70;;;;;;;;;;6213632;23;20015;-63
2023/01/03 18:39:04;;;;;;;50.97;26.00;;;;;;;;;;6213419;23;20362;-62
2023/01/03 18:41:31;;;;;;;57.10;25.33;;;;;;;;;;6213717;23;20012;-61
2023/01/03 18:43:58;;;;;;;55.55;25.65;;;;;;;;;;6214086;23;20402;-63
2023/01/03 18:46:24;;;;;;;44.58;24.08;;;;;;;;;;6212159;23;20004;-63
2023/01/03 18:48:50;;;;;;;54.60;24.08;;;;;;;;;;6213154;23;20052;-60
2023/01/03 18:51:17;;;;;;;46.22;23.90;;;;;;;;;;6213286;23;20381;-61
2023/01/03 18:53:44;;;;;;;47.80;24.05;;;;;;;;;;6213495;23;20007;-61
2023/01/03 18:56:22;;;;;;;45.37;22.90;;;;;;;;;;6213418;23;20008;-63
2023/01/03 18:58:50;;;;;;;51.60;23.85;;;;;;;;;;6213118;23;20429;-63
2023/01/03 19:01:16;;;;;;;39.65;20.92;;;;;;;;;;6213364;23;20000;-61
2023/01/03 19:03:43;;;;;;;41.50;22.40;;;;;;;;;;6214043;23;20004;-62
2023/01/03 19:06:17;;;;;;;46.92;22.23;;;;;;;;;;6215148;23;20027;-63
2023/01/03 19:08:43;;;;;;;41.67;20.23;;;;;;;;;;6214696;23;20009;-62
2023/01/03 19:11:19;;;;;;;41.03;21.10;;;;;;;;;;6215221;23;20001;-62
2023/01/03 19:13:54;;;;;;;35.28;20.70;;;;;;;;;;6215118;23;20079;-62
2023/01/03 19:16:25;;;;;;;40.53;20.45;;;;;;;;;;6215396;23;20334;-61
2023/01/03 19:18:51;;;;;;;37.05;20.33;;;;;;;;;;6188120;23;20011;-62
2023/01/03 19:21:18;;;;;;;31.83;18.77;;;;;;;;;;6215087;23;20163;-62
2023/01/03 19:23:46;;;;;;;33.80;20.17;;;;;;;;;;6212608;23;20011;-64
2023/01/03 19:26:11;;;;;;;;;;;;;;;;;;6186677;23;20012;-63
2023/01/03 19:28:39;;;;;;;33.58;18.15;;;;;;;;;;6214667;23;19900;-63
2023/01/03 19:31:05;;;;;;;32.05;18.70;;;;;;;;;;6212674;23;20005;-61
2023/01/03 19:33:31;;;;;;;39.97;19.40;;;;;;;;;;6212539;23;20011;-63
2023/01/03 19:35:58;;;;;;;37.50;19.48;;;;;;;;;;6214604;23;20487;-66
2023/01/03 19:38:24;;;;;;;45.50;20.00;;;;;;;;;;6214704;23;20004;-61
2023/01/03 19:40:50;;;;;;;38.08;19.02;;;;;;;;;;6213577;23;20385;-62
2023/01/03 19:43:20;;;;;;;36.10;18.00;;;;;;;;;;6212463;23;20000;-62
2023/01/03 19:45:46;;;;;;;31.77;17.63;;;;;;;;;;6213007;23;20031;-62
2023/01/03 19:48:15;;;;;;;35.20;18.17;;;;;;;;;;6212567;23;20013;-62
2023/01/03 19:50:41;;;;;;;40.58;17.63;;;;;;;;;;6187630;23;20063;-64
2023/01/03 19:53:07;;;;;;;33.53;17.95;;;;;;;;;;6213413;23;20007;-64
2023/01/03 19:55:34;;;;;;;29.67;16.98;;;;;;;;;;6214422;23;20009;-65
2023/01/03 19:58:02;;;;;;;33.08;17.58;;;;;;;;;;6214043;23;20027;-65
2023/01/03 20:00:31;;;;;;;26.77;16.77;;;;;;;;;;6214082;23;20005;-64
2023/01/03 20:02:59;;;;;;;31.33;16.95;;;;;;;;;;6186530;23;20001;-65
2023/01/03 20:05:29;;;;;;;29.38;15.15;;;;;;;;;;6214664;23;20005;-65
2023/01/03 20:07:55;;;;;;;27.02;14.52;;;;;;;;;;6214880;23;19996;-64
2023/01/03 20:10:25;;;;;;;28.02;15.80;;;;;;;;;;6214798;23;20503;-64
2023/01/03 20:12:56;;;;;;;29.85;14.63;;;;;;;;;;6215349;23;20080;-64
2023/01/03 20:15:26;;;;;;;28.20;15.65;;;;;;;;;;6214963;23;20023;-65
2023/01/03 20:17:52;;;;;;;34.42;15.90;;;;;;;;;;6214561;23;20000;-64
2023/01/03 20:20:19;;;;;;;40.08;15.30;;;;;;;;;;6188644;23;20372;-63
2023/01/03 20:22:46;;;;;;;44.75;15.45;;;;;;;;;;6182840;23;20060;-62
2023/01/03 20:25:23;;;;;;;45.60;16.95;;;;;;;;;;6183152;23;20008;-62
2023/01/03 20:27:49;;;;;;;28.75;14.98;;;;;;;;;;6184580;23;19997;-62
2023/01/03 20:30:16;;;;;;;28.98;15.10;;;;;;;;;;6183540;23;20055;-61
2023/01/03 20:32:42;;;;;;;24.00;14.30;;;;;;;;;;6184452;23;20073;-62
2023/01/03 20:35:12;;;;;;;24.67;14.73;;;;;;;;;;6184417;23;20080;-61
2023/01/03 20:37:38;;;;;;;35.85;15.25;;;;;;;;;;6184943;23;20058;-63
2023/01/03 20:40:04;;;;;;;34.38;14.93;;;;;;;;;;6184224;23;20005;-62
2023/01/03 20:42:30;;;;;;;27.95;14.82;;;;;;;;;;6184416;23;20012;-62
2023/01/03 20:44:56;;;;;;;24.90;13.75;;;;;;;;;;6183018;23;20329;-61
2023/01/03 20:47:24;;;;;;;27.42;14.52;;;;;;;;;;6181933;23;20005;-63
2023/01/03 20:49:50;;;;;;;34.40;14.38;;;;;;;;;;6182368;23;20489;-63
2023/01/03 20:52:16;;;;;;;42.75;14.98;;;;;;;;;;6184423;23;20011;-63
2023/01/03 20:54:43;;;;;;;35.78;15.15;;;;;;;;;;6184491;23;20001;-62
2023/01/03 20:57:13;;;;;;;32.15;13.80;;;;;;;;;;6184314;23;20494;-62
2023/01/03 20:59:39;;;;;;;31.65;14.48;;;;;;;;;;6184197;23;20005;-61
2023/01/03 21:02:05;;;;;;;32.15;14.73;;;;;;;;;;6184571;23;20075;-63
2023/01/03 21:04:31;;;;;;;36.97;14.88;;;;;;;;;;6184589;23;20077;-62
2023/01/03 21:06:57;;;;;;;28.70;13.23;;;;;;;;;;6185048;23;20004;-65
2023/01/03 21:09:23;;;;;;;33.53;14.43;;;;;;;;;;6184327;23;20377;-64
2023/01/03 21:11:49;;;;;;;32.63;13.88;;;;;;;;;;6184176;23;20029;-64
2023/01/03 21:14:15;;;;;;;26.60;11.77;;;;;;;;;;6184570;23;20024;-64
2023/01/03 21:16:45;;;;;;;28.17;14.68;;;;;;;;;;6184177;23;20005;-64
2023/01/03 21:19:14;;;;;;;21.55;12.18;;;;;;;;;;6182412;23;20315;-64
2023/01/03 21:21:41;;;;;;;27.65;13.18;;;;;;;;;;6189913;23;20009;-65
2023/01/03 21:24:07;;;;;;;26.08;12.55;;;;;;;;;;6214217;23;19996;-67
2023/01/03 21:26:33;;;;;;;21.75;13.77;;;;;;;;;;6214261;23;20495;-62
2023/01/03 21:28:59;;;;;;;22.48;13.27;;;;;;;;;;6187100;23;20043;-62